Time;durP1;ratioP1;P1;durP2;ratioP2;P2;SDS_P1;SDS_P2;PMS_P1;PMS_P2;Temp;Humidity;BMP_temperature;BMP_pressure;BME280_temperature;BME280_humidity;BME280_pressure;Samples;Min_cycle;Max_cycle;Signal;HPM_P1;HPM_P2
2022/02/15 00:00:18;;;;;;;10.68;2.03;;;;;;;5.87;100.00;99327.44;4810917;29;20023;-83
2022/02/15 00:05:19;;;;;;;10.70;2.03;;;;;;;5.55;100.00;99281.81;4819073;24;20047;-82
2022/02/15 00:07:45;;;;;;;12.20;1.88;;;;;;;5.70;100.00;99291.50;4792832;29;20077;-82
2022/02/15 00:10:10;;;;;;;18.70;2.65;;;;;;;5.82;100.00;99305.84;4778529;30;20088;-82
2022/02/15 00:12:37;;;;;;;16.10;2.30;;;;;;;5.88;100.00;99321.88;4793117;29;20035;-84
2022/02/15 00:15:04;;;;;;;20.65;2.78;;;;;;;5.77;100.00;99311.00;4807469;29;20026;-83
2022/02/15 00:17:30;;;;;;;17.67;2.83;;;;;;;5.75;100.00;99294.34;4807688;29;20050;-83
2022/02/15 00:19:55;;;;;;;19.90;2.70;;;;;;;5.79;100.00;99308.94;4797251;29;20059;-83
2022/02/15 00:22:20;;;;;;;13.05;2.17;;;;;;;5.72;100.00;99289.44;4785594;29;20046;-83
2022/02/15 00:24:46;;;;;;;18.05;3.08;;;;;;;5.57;100.00;99274.44;4798234;29;20027;-83
2022/02/15 00:27:11;;;;;;;18.80;3.15;;;;;;;5.65;100.00;99292.91;4792795;29;20016;-83
2022/02/15 00:29:37;;;;;;;19.23;2.60;;;;;;;5.56;100.00;99280.81;4789200;30;20036;-83
2022/02/15 00:32:02;;;;;;;21.10;2.50;;;;;;;5.53;100.00;99281.22;4798952;29;20024;-83
2022/02/15 00:34:28;;;;;;;22.83;3.05;;;;;;;5.55;100.00;99297.00;4811011;29;20035;-83
2022/02/15 00:36:53;;;;;;;16.88;2.70;;;;;;;5.50;100.00;99276.28;4786984;30;20074;-83
2022/02/15 00:39:19;;;;;;;17.83;2.60;;;;;;;5.53;100.00;99275.88;4790314;30;20070;-83
2022/02/15 00:41:44;;;;;;;19.02;2.95;;;;;;;5.41;100.00;99248.97;4810613;29;20159;-83
2022/02/15 00:44:09;;;;;;;17.10;2.70;;;;;;;5.57;100.00;99263.78;4806728;29;20023;-83
2022/02/15 00:46:35;;;;;;;19.20;2.03;;;;;;;5.59;100.00;99274.22;4811340;29;20026;-82
2022/02/15 00:49:00;;;;;;;13.95;2.00;;;;;;;5.51;100.00;99264.59;4791724;29;20086;-83
2022/02/15 00:51:26;;;;;;;21.48;3.38;;;;;;;5.59;100.00;99280.38;4792762;30;20036;-82
2022/02/15 00:53:51;;;;;;;13.63;2.30;;;;;;;5.36;100.00;99251.44;4792441;29;20038;-83
2022/02/15 00:56:17;;;;;;;16.08;3.28;;;;;;;5.53;100.00;99278.56;4778352;29;20073;-83
2022/02/15 00:58:42;;;;;;;17.38;2.97;;;;;;;5.52;100.00;99286.75;4792394;30;20028;-83
2022/02/15 01:01:07;;;;;;;19.38;2.75;;;;;;;5.51;100.00;99283.25;4775562;30;20016;-82
2022/02/15 01:03:33;;;;;;;17.95;2.28;;;;;;;5.48;100.00;99278.31;4792230;29;20039;-83
2022/02/15 01:05:59;;;;;;;23.63;3.30;;;;;;;5.42;100.00;99277.28;4792642;29;20036;-83
2022/02/15 01:08:25;;;;;;;20.73;2.90;;;;;;;5.42;100.00;99279.13;4804643;29;20023;-83
2022/02/15 01:10:51;;;;;;;14.93;2.83;;;;;;;5.39;100.00;99269.69;4807813;29;20039;-84
2022/02/15 01:13:17;;;;;;;26.88;3.55;;;;;;;5.35;100.00;99275.63;4816540;29;20027;-83
2022/02/15 01:15:42;;;;;;;19.88;3.72;;;;;;;5.26;100.00;99266.19;4816571;29;20077;-82
2022/02/15 01:18:08;;;;;;;21.55;3.03;;;;;;;5.07;100.00;99239.28;4811984;29;20019;-83
2022/02/15 01:20:34;;;;;;;22.30;2.90;;;;;;;5.31;100.00;99266.41;4799645;29;20027;-83
2022/02/15 01:23:00;;;;;;;22.60;3.28;;;;;;;5.30;100.00;99256.78;4799354;30;20028;-83
2022/02/15 01:25:26;;;;;;;21.50;2.97;;;;;;;5.34;100.00;99266.81;4811918;29;20043;-83
2022/02/15 01:27:52;;;;;;;15.27;3.03;;;;;;;5.40;100.00;99257.19;4801391;29;20062;-83
2022/02/15 01:30:18;;;;;;;15.85;3.20;;;;;;;5.47;100.00;99254.53;4817110;29;20356;-83
2022/02/15 01:32:44;;;;;;;22.52;2.85;;;;;;;5.50;100.00;99246.94;4803300;29;20039;-82
2022/02/15 01:35:09;;;;;;;21.85;3.30;;;;;;;5.31;100.00;99221.06;4799213;30;20016;-83
2022/02/15 01:37:35;;;;;;;18.95;2.72;;;;;;;5.51;100.00;99235.22;4798556;29;20027;-83
2022/02/15 01:40:00;;;;;;;18.20;3.42;;;;;;;5.39;100.00;99228.84;4797904;30;20038;-83
2022/02/15 01:42:26;;;;;;;21.23;3.17;;;;;;;5.52;100.00;99252.06;4798775;29;20032;-83
2022/02/15 01:44:51;;;;;;;16.83;2.72;;;;;;;5.52;100.00;99238.72;4797570;29;20023;-82
2022/02/15 01:47:25;;;;;;;13.70;3.00;;;;;;;5.41;100.00;99222.28;4798411;29;20047;-83
2022/02/15 01:49:50;;;;;;;14.73;3.13;;;;;;;5.37;100.00;99215.75;4781485;30;20031;-83
2022/02/15 01:52:20;;;;;;;17.05;2.70;;;;;;;5.57;100.00;99245.09;4778463;30;20066;-82
2022/02/15 01:54:47;;;;;;;21.10;2.28;;;;;;;5.52;100.00;99223.53;4792596;29;20008;-83
2022/02/15 01:57:13;;;;;;;12.70;1.88;;;;;;;5.40;100.00;99210.00;4798165;29;20062;-83
2022/02/15 01:59:38;;;;;;;19.45;2.83;;;;;;;5.59;100.00;99234.19;4782628;30;20025;-83
2022/02/15 02:02:04;;;;;;;20.77;3.60;;;;;;;5.51;100.00;99216.56;4799849;29;20065;-83
2022/02/15 02:07:14;;;;;;;21.13;3.28;;;;;;;5.63;100.00;99232.78;4813341;29;20027;-83
2022/02/15 02:09:39;;;;;;;15.20;3.17;;;;;;;5.56;100.00;99214.09;4815863;29;20031;-84
2022/02/15 02:12:05;;;;;;;17.83;3.75;;;;;;;5.51;100.00;99207.75;4815498;29;20043;-83
2022/02/15 02:14:30;;;;;;;23.27;3.83;;;;;;;5.63;100.00;99222.94;4782476;30;20063;-83
2022/02/15 02:16:56;;;;;;;13.38;2.95;;;;;;;5.65;100.00;99222.72;4796335;29;20034;-83
2022/02/15 02:19:21;;;;;;;19.08;3.72;;;;;;;5.64;100.00;99218.41;4798024;29;20088;-83
2022/02/15 02:21:46;;;;;;;17.52;3.53;;;;;;;5.58;100.00;99205.88;4798851;29;20020;-83
2022/02/15 02:24:12;;;;;;;15.57;3.53;;;;;;;5.62;100.00;99207.09;4794963;29;20046;-83
2022/02/15 02:26:37;;;;;;;21.20;4.10;;;;;;;5.53;100.00;99187.84;4795367;29;20028;-83
2022/02/15 02:29:04;;;;;;;18.83;4.05;;;;;;;5.56;100.00;99192.75;4796022;29;20032;-84
2022/02/15 02:31:29;;;;;;;20.52;3.83;;;;;;;5.65;100.00;99217.38;4795371;29;20050;-84
2022/02/15 02:34:01;;;;;;;20.05;3.88;;;;;;;5.68;100.00;99213.47;4793762;29;20036;-83
2022/02/15 02:36:27;;;;;;;17.08;4.03;;;;;;;5.69;100.00;99209.78;4779721;30;20091;-83
2022/02/15 02:38:53;;;;;;;22.85;4.57;;;;;;;5.71;100.00;99213.06;4824930;29;20031;-83
2022/02/15 02:41:18;;;;;;;22.48;3.83;;;;;;;5.70;100.00;99200.75;4813602;29;20086;-83
2022/02/15 02:43:43;;;;;;;23.42;4.25;;;;;;;5.68;100.00;99200.13;4812766;29;20027;-82
2022/02/15 02:46:09;;;;;;;19.35;4.10;;;;;;;5.68;100.00;99205.47;4808663;29;20113;-83
2022/02/15 02:48:34;;;;;;;23.38;4.25;;;;;;;5.66;100.00;99197.66;4802918;29;20011;-82
2022/02/15 02:51:00;;;;;;;23.80;4.45;;;;;;;5.64;100.00;99192.53;4794469;30;20104;-82
2022/02/15 02:53:25;;;;;;;21.42;4.80;;;;;;;5.57;100.00;99194.41;4794099;29;20028;-83
2022/02/15 02:55:52;;;;;;;21.88;5.10;;;;;;;5.50;100.00;99193.59;4778111;30;20077;-83
2022/02/15 02:58:18;;;;;;;23.90;4.75;;;;;;;5.60;100.00;99194.00;4811311;29;20036;-83
2022/02/15 03:00:43;;;;;;;21.17;4.70;;;;;;;5.61;100.00;99179.59;4762798;30;20067;-83
2022/02/15 03:03:09;;;;;;;21.02;5.10;;;;;;;5.61;100.00;99179.59;4813801;29;20095;-80
2022/02/15 03:05:34;;;;;;;24.27;5.40;;;;;;;5.63;100.00;99182.91;4798009;29;20038;-82
2022/02/15 03:08:00;;;;;;;24.75;5.70;;;;;;;5.62;100.00;99175.91;4808523;29;20075;-83
2022/02/15 03:10:26;;;;;;;17.75;4.88;;;;;;;5.54;100.00;99160.13;4806716;29;20084;-82
2022/02/15 03:12:51;;;;;;;29.33;6.63;;;;;;;5.43;100.00;99152.75;4890122;24;20055;-82
2022/02/15 03:15:16;;;;;;;25.83;6.38;;;;;;;5.52;100.00;99167.50;4810770;29;20043;-82
2022/02/15 03:17:42;;;;;;;29.50;6.93;;;;;;;5.56;100.00;99174.09;4809206;29;20027;-82
2022/02/15 03:20:09;;;;;;;27.85;7.65;;;;;;;5.61;100.00;99179.59;4811922;29;20051;-83
2022/02/15 03:22:34;;;;;;;24.80;7.85;;;;;;;5.59;100.00;99170.97;4786611;30;20035;-83
2022/02/15 03:25:00;;;;;;;26.85;7.60;;;;;;;5.52;100.00;99156.81;4797356;30;20050;-83
2022/02/15 03:27:25;;;;;;;25.33;8.98;;;;;;;5.58;100.00;99176.53;4811811;29;20031;-83
2022/02/15 03:29:51;;;;;;;33.47;9.27;;;;;;;5.63;100.00;99166.91;4806574;29;20109;-84
2022/02/15 03:32:16;;;;;;;24.25;9.20;;;;;;;5.64;100.00;99157.84;4780009;30;20091;-83
2022/02/15 03:34:42;;;;;;;32.65;9.57;;;;;;;5.59;100.00;99160.31;4812224;29;20042;-83
2022/02/15 03:37:07;;;;;;;29.55;10.20;;;;;;;5.59;100.00;99162.97;4812678;29;20046;-82
2022/02/15 03:39:35;;;;;;;29.33;10.02;;;;;;;5.35;100.00;99132.44;4809690;29;20050;-83
2022/02/15 03:44:46;;;;;;;;;;;;;;;5.57;100.00;99156.22;4810794;29;20074;-83
2022/02/15 03:47:11;;;;;;;31.35;12.25;;;;;;;5.57;100.00;99151.72;4810773;29;19906;-83
2022/02/15 03:49:37;;;;;;;25.92;12.02;;;;;;;5.60;100.00;99155.81;5172786;24;20059;-83
2022/02/15 03:52:03;;;;;;;34.83;14.27;;;;;;;5.44;100.00;99133.03;5067057;24;20067;-83
2022/02/15 03:54:28;;;;;;;40.35;14.00;;;;;;;5.59;100.00;99144.31;4794226;29;20042;-80
2022/02/15 03:56:54;;;;;;;38.38;14.52;;;;;;;5.55;100.00;99127.06;4780673;29;20038;-83
2022/02/15 03:59:19;;;;;;;30.02;14.32;;;;;;;5.62;100.00;99141.22;4785568;29;20031;-81
2022/02/15 04:01:45;;;;;;;35.75;15.00;;;;;;;5.63;100.00;99148.22;4793171;29;20037;-82
2022/02/15 04:04:11;;;;;;;32.17;14.30;;;;;;;5.64;100.00;99143.69;4776999;30;20036;-83
2022/02/15 04:06:36;;;;;;;30.52;14.25;;;;;;;5.62;100.00;99143.06;4790015;29;20074;-83
2022/02/15 04:09:01;;;;;;;30.27;12.52;;;;;;;5.51;100.00;99117.84;4803881;30;20056;-83
2022/02/15 04:11:27;;;;;;;36.00;14.07;;;;;;;5.59;100.00;99128.28;4812070;29;20019;-83
2022/02/15 04:13:52;;;;;;;38.15;15.15;;;;;;;5.64;100.00;99130.34;4811243;29;20018;-81
2022/02/15 04:16:18;;;;;;;33.17;14.55;;;;;;;5.64;100.00;99133.84;4812298;29;20031;-82
2022/02/15 04:18:47;;;;;;;32.63;14.05;;;;;;;5.61;100.00;99117.44;4798109;29;20031;-85
2022/02/15 04:21:14;;;;;;;28.48;13.88;;;;;;;5.66;100.00;99128.28;4764691;30;20037;-82
2022/02/15 04:23:40;;;;;;;35.95;14.95;;;;;;;5.66;100.00;99117.59;4791656;30;20040;-83
2022/02/15 04:26:06;;;;;;;35.53;15.45;;;;;;;5.65;100.00;99124.78;4796582;29;20019;-82
2022/02/15 04:28:31;;;;;;;31.23;14.25;;;;;;;5.64;100.00;99114.34;4778444;30;20028;-82
2022/02/15 04:30:57;;;;;;;35.92;15.27;;;;;;;5.63;100.00;99113.53;4794019;30;20020;-83
2022/02/15 04:33:23;;;;;;;35.08;14.90;;;;;;;5.65;100.00;99118.63;4793253;29;20091;-83
2022/02/15 04:35:49;;;;;;;25.90;13.85;;;;;;;5.66;100.00;99122.94;4793464;29;20019;-82
2022/02/15 04:38:15;;;;;;;35.45;13.20;;;;;;;5.64;100.00;99115.16;4793206;29;20019;-82
2022/02/15 04:40:40;;;;;;;35.33;13.00;;;;;;;5.68;100.00;99126.22;4791642;29;20032;-83
2022/02/15 04:43:05;;;;;;;31.90;12.00;;;;;;;5.66;100.00;99114.94;4797665;30;20076;-82
2022/02/15 04:45:31;;;;;;;30.33;12.75;;;;;;;5.70;100.00;99118.03;4811091;29;20023;-83
2022/02/15 04:47:56;;;;;;;33.10;12.10;;;;;;;5.73;100.00;99120.25;4806525;29;20391;-83
2022/02/15 04:50:21;;;;;;;35.20;12.50;;;;;;;5.74;100.00;99124.59;4777707;30;20024;-83
2022/02/15 04:52:47;;;;;;;32.38;12.60;;;;;;;5.67;100.00;99094.44;4777316;30;20162;-83
2022/02/15 04:55:12;;;;;;;30.25;12.60;;;;;;;5.68;100.00;99115.56;4792779;29;20020;-83
2022/02/15 04:57:39;;;;;;;41.00;13.82;;;;;;;5.70;100.00;99120.69;4793431;29;20051;-83
2022/02/15 05:00:05;;;;;;;39.08;13.43;;;;;;;5.61;100.00;99099.56;4793505;29;20039;-83
2022/02/15 05:02:30;;;;;;;37.50;13.27;;;;;;;5.68;100.00;99123.56;4788689;29;20026;-84
2022/02/15 05:04:58;;;;;;;38.28;14.30;;;;;;;5.60;100.00;99127.28;4793413;29;20020;-82
2022/02/15 05:07:23;;;;;;;37.88;13.52;;;;;;;5.57;100.00;99124.22;4790960;29;20024;-83
2022/02/15 05:09:49;;;;;;;33.83;13.43;;;;;;;5.53;100.00;99112.28;4792356;29;20031;-83
2022/02/15 05:12:16;;;;;;;41.10;13.45;;;;;;;5.57;100.00;99140.22;4791920;29;20051;-83
2022/02/15 05:14:42;;;;;;;36.08;11.98;;;;;;;5.53;100.00;99131.81;4791511;29;20032;-84
2022/02/15 05:17:07;;;;;;;32.28;12.85;;;;;;;5.44;100.00;99119.72;4791815;30;20016;-82
2022/02/15 05:19:33;;;;;;;43.45;13.05;;;;;;;5.48;100.00;99141.47;4792013;30;20024;-83
2022/02/15 05:22:02;;;;;;;37.20;12.07;;;;;;;5.47;100.00;99129.97;4792686;29;20027;-81
2022/02/15 05:24:28;;;;;;;36.33;10.50;;;;;;;5.12;100.00;99095.50;4793221;30;20027;-83
2022/02/15 05:26:53;;;;;;;36.55;9.73;;;;;;;5.48;100.00;99152.13;4790551;29;20074;-85
2022/02/15 05:29:19;;;;;;;32.35;9.02;;;;;;;5.32;100.00;99140.84;4809508;29;20040;-83
2022/02/15 05:31:50;;;;;;;35.95;9.77;;;;;;;5.46;100.00;99162.16;4786526;30;20027;-82
2022/02/15 05:34:16;;;;;;;31.75;7.55;;;;;;;5.42;100.00;99151.91;4789983;29;20020;-83
2022/02/15 05:39:17;;;;;;;25.45;6.28;;;;;;;4.59;100.00;99057.38;5103021;24;20060;-83
2022/02/15 05:41:43;;;;;;;25.25;5.70;;;;;;;3.67;100.00;98912.44;4790591;29;20222;-83
2022/02/15 05:44:08;;;;;;;20.48;4.75;;;;;;;4.51;100.00;99053.06;4790048;29;20057;-84
2022/02/15 05:46:34;;;;;;;27.05;4.85;;;;;;;4.12;100.00;98998.72;5004030;24;20164;-84
2022/02/15 06:07:33;;;;;;;17.55;2.83;;;;;;;4.11;100.00;99030.88;4828440;24;20221;-83
2022/02/15 06:17:44;;;;;;;13.32;2.10;;;;;;;3.60;100.00;98965.59;4890847;24;20055;-82
2022/02/15 06:20:10;;;;;;;22.42;2.70;;;;;;;3.79;100.00;99013.78;4782388;30;20051;-83
2022/02/15 06:22:36;;;;;;;15.60;2.30;;;;;;;5.13;100.00;99229.63;4786617;30;20032;-83
2022/02/15 06:25:01;;;;;;;14.30;1.88;;;;;;;3.58;100.00;98988.13;4777721;30;20032;-82
2022/02/15 06:27:27;;;;;;;16.08;1.98;;;;;;;3.43;100.00;98973.09;4761525;30;20031;-81
2022/02/15 06:29:52;;;;;;;11.55;1.58;;;;;;;5.10;100.00;99225.56;4788351;30;20046;-83
2022/02/15 06:32:18;;;;;;;14.60;1.83;;;;;;;5.11;100.00;99235.19;4769692;30;20051;-82
2022/02/15 06:34:44;;;;;;;12.93;1.73;;;;;;;3.28;100.00;98946.69;4784248;29;20019;-83
2022/02/15 06:37:10;;;;;;;9.27;1.75;;;;;;;4.14;100.00;99071.22;4795425;29;20028;-84
2022/02/15 06:39:35;;;;;;;11.57;1.80;;;;;;;5.05;100.00;99244.00;4782644;29;20027;-84
2022/02/15 06:42:01;;;;;;;11.70;1.83;;;;;;;5.07;100.00;99244.63;4778396;30;20024;-82
2022/02/15 06:44:27;;;;;;;18.77;2.00;;;;;;;3.95;100.00;99071.97;4795482;29;20031;-83
2022/02/15 06:46:52;;;;;;;10.95;1.60;;;;;;;4.07;100.00;99110.28;4777366;30;20024;-83
2022/02/15 06:49:18;;;;;;;16.67;1.90;;;;;;;4.09;100.00;99105.59;4777319;29;20040;-84
2022/02/15 06:51:43;;;;;;;15.68;1.92;;;;;;;3.46;100.00;99007.28;4790222;29;20023;-84
2022/02/15 06:59:20;;;;;;;16.73;2.05;;;;;;;5.18;100.00;99277.88;5736561;24;20024;-74
2022/02/15 07:06:59;;;;;;;21.23;2.20;;;;;;;3.40;100.00;99012.56;5149414;24;20073;-83
2022/02/15 07:14:31;;;;;;;20.23;2.50;;;;;;;5.17;100.00;99308.22;4785866;29;20280;-84
2022/02/15 07:16:56;;;;;;;14.57;1.98;;;;;;;3.58;100.00;99071.38;4791474;29;20055;-84
2022/02/15 07:19:22;;;;;;;16.33;2.08;;;;;;;3.52;100.00;99056.22;4791554;30;20028;-79
2022/02/15 07:21:49;;;;;;;17.13;2.10;;;;;;;4.32;100.00;99186.97;4786566;30;20074;-82
2022/02/15 07:24:16;;;;;;;20.55;2.60;;;;;;;5.19;100.00;99308.81;4790529;30;20046;-81
2022/02/15 07:26:42;;;;;;;21.55;1.88;;;;;;;4.22;100.00;99160.72;4787986;30;20043;-82
2022/02/15 07:29:07;;;;;;;21.60;2.00;;;;;;;5.23;100.00;99322.56;4805926;29;20039;-83
2022/02/15 07:31:33;;;;;;;23.73;2.78;;;;;;;4.84;100.00;99274.28;4797732;30;20394;-83
2022/02/15 07:33:59;;;;;;;22.30;2.88;;;;;;;5.18;100.00;99334.69;4797493;30;20036;-83
2022/02/15 07:36:25;;;;;;;20.48;2.55;;;;;;;4.28;100.00;99185.75;4791936;30;20079;-83
2022/02/15 07:38:50;;;;;;;19.15;2.45;;;;;;;5.18;100.00;99355.19;4792622;30;20038;-82
2022/02/15 07:41:16;;;;;;;17.50;1.90;;;;;;;5.22;100.00;99371.63;4788210;30;20051;-81
2022/02/15 07:43:43;;;;;;;21.02;1.98;;;;;;;5.23;100.00;99375.91;4791013;30;20088;-82
2022/02/15 07:46:08;;;;;;;17.45;1.92;;;;;;;5.24;100.00;99372.25;4779906;29;20048;-82
2022/02/15 07:48:34;;;;;;;25.10;2.53;;;;;;;5.21;100.00;99380.66;4793596;29;20053;-81
2022/02/15 07:51:00;;;;;;;17.52;2.15;;;;;;;5.09;100.00;99359.88;4773876;30;20325;-82
2022/02/15 07:53:25;;;;;;;16.05;1.85;;;;;;;5.19;100.00;99383.50;4772828;30;20027;-82
2022/02/15 07:55:51;;;;;;;16.17;1.83;;;;;;;5.16;100.00;99390.03;4760890;30;20091;-82
2022/02/15 07:58:16;;;;;;;19.58;2.00;;;;;;;5.09;100.00;99378.53;4791206;30;20038;-82
2022/02/15 08:00:42;;;;;;;19.02;2.13;;;;;;;5.15;100.00;99392.91;4783333;30;20463;-80
2022/02/15 08:03:07;;;;;;;24.88;2.55;;;;;;;4.99;100.00;99372.75;4800249;30;20038;-82
2022/02/15 08:05:34;;;;;;;17.35;2.03;;;;;;;5.15;100.00;99401.72;4808900;30;20043;-82
2022/02/15 08:08:00;;;;;;;17.58;2.53;;;;;;;5.14;100.00;99404.63;4811045;30;20039;-82
2022/02/15 08:10:26;;;;;;;20.65;2.22;;;;;;;5.04;100.00;99380.97;4809039;30;20090;-83
2022/02/15 08:12:57;;;;;;;17.23;2.40;;;;;;;5.26;100.00;99399.53;4793189;30;20052;-82
2022/02/15 08:15:24;;;;;;;23.23;2.15;;;;;;;5.26;100.00;99410.19;4799673;30;20039;-82
2022/02/15 08:17:50;;;;;;;32.42;2.85;;;;;;;5.28;100.00;99408.97;4796550;29;20532;-82
2022/02/15 08:20:15;;;;;;;21.10;2.17;;;;;;;5.19;100.00;99402.97;4774916;30;20050;-82
2022/02/15 08:22:41;;;;;;;20.63;2.20;;;;;;;5.15;100.00;99393.75;4802181;29;20070;-82
2022/02/15 08:25:07;;;;;;;24.05;2.40;;;;;;;5.33;100.00;99432.38;4792088;29;20636;-82
2022/02/15 08:27:33;;;;;;;16.40;2.40;;;;;;;5.17;100.00;99413.03;4796337;29;20032;-83
2022/02/15 08:29:59;;;;;;;30.38;3.35;;;;;;;5.19;100.00;99424.31;4791072;30;20035;-82
2022/02/15 08:32:24;;;;;;;22.40;2.42;;;;;;;5.27;100.00;99434.00;4791688;29;20027;-83
2022/02/15 08:34:50;;;;;;;26.48;3.17;;;;;;;5.30;100.00;99438.13;4797688;29;20024;-82
2022/02/15 08:37:15;;;;;;;23.83;2.97;;;;;;;5.37;100.00;99444.31;4791134;30;20143;-83
2022/02/15 08:39:41;;;;;;;23.42;2.88;;;;;;;5.40;100.00;99442.06;4790444;30;20041;-82
2022/02/15 08:42:06;;;;;;;24.02;2.78;;;;;;;5.34;100.00;99447.38;4790076;30;20032;-82
2022/02/15 08:44:34;;;;;;;19.58;2.58;;;;;;;5.11;100.00;99408.50;4761496;30;20040;-82
2022/02/15 08:47:00;;;;;;;21.80;3.42;;;;;;;5.33;100.00;99469.72;4788357;30;20035;-81
2022/02/15 08:49:26;;;;;;;18.65;2.85;;;;;;;5.30;100.00;99459.47;4787306;30;20028;-82
2022/02/15 08:51:52;;;;;;;21.42;2.75;;;;;;;5.12;100.00;99450.13;4792307;30;20050;-82
2022/02/15 08:54:17;;;;;;;26.20;3.58;;;;;;;5.25;100.00;99472.56;4777797;29;20036;-82
2022/02/15 08:56:43;;;;;;;17.42;3.05;;;;;;;5.05;100.00;99446.59;4777198;29;20032;-82
2022/02/15 08:59:08;;;;;;;24.10;3.15;;;;;;;5.32;100.00;99478.75;4777233;30;20039;-82
2022/02/15 09:01:35;;;;;;;29.63;3.42;;;;;;;5.26;100.00;99469.69;4792909;30;20066;-83
2022/02/15 09:04:06;;;;;;;22.83;2.83;;;;;;;5.16;100.00;99455.88;4779729;30;20069;-83
2022/02/15 09:06:34;;;;;;;21.88;2.92;;;;;;;5.27;100.00;99478.53;4793872;30;20042;-82
2022/02/15 09:08:59;;;;;;;21.58;2.97;;;;;;;5.24;100.00;99474.41;4797114;30;20028;-80
2022/02/15 09:11:26;;;;;;;23.13;2.83;;;;;;;5.28;100.00;99483.66;4788447;30;20048;-82
2022/02/15 09:13:51;;;;;;;24.85;2.95;;;;;;;5.34;100.00;99496.19;4776137;29;20039;-83
2022/02/15 09:16:17;;;;;;;24.58;3.28;;;;;;;5.44;100.00;99503.84;4802515;29;20038;-81
2022/02/15 09:18:42;;;;;;;24.58;3.28;;;;;;;5.44;100.00;99503.84;4788285;30;20047;-82
2022/02/15 09:21:08;;;;;;;25.73;2.97;;;;;;;5.43;100.00;99504.88;4771694;30;20043;-82
2022/02/15 09:23:33;;;;;;;23.52;3.33;;;;;;;5.35;100.00;99478.34;4788439;30;20046;-82
2022/02/15 09:25:59;;;;;;;30.08;3.55;;;;;;;5.51;100.00;99503.88;4773124;30;20070;-82
2022/02/15 09:28:25;;;;;;;29.88;3.70;;;;;;;5.37;100.00;99509.16;4772989;30;20044;-82
2022/02/15 09:30:54;;;;;;;24.85;4.25;;;;;;;5.31;100.00;99509.13;4804130;30;20050;-81
2022/02/15 09:33:24;;;;;;;27.90;3.20;;;;;;;5.46;100.00;99527.66;4790567;30;20042;-81
2022/02/15 09:35:49;;;;;;;32.10;3.90;;;;;;;5.46;100.00;99524.97;4770615;30;20048;-82
2022/02/15 09:38:16;;;;;;;23.67;3.97;;;;;;;5.34;100.00;99498.88;4791233;30;20083;-81
2022/02/15 09:40:42;;;;;;;31.65;4.63;;;;;;;5.53;100.00;99523.16;4788578;30;20043;-82
2022/02/15 09:43:08;;;;;;;24.83;3.95;;;;;;;5.58;100.00;99526.91;4791608;30;20036;-82
2022/02/15 09:45:35;;;;;;;26.10;4.03;;;;;;;5.51;100.00;99518.03;4794995;30;20160;-81
2022/02/15 09:48:02;;;;;;;33.10;4.40;;;;;;;5.50;100.00;99521.72;4786239;30;20063;-82
2022/02/15 09:50:32;;;;;;;26.20;3.35;;;;;;;5.45;100.00;99532.16;4782642;30;20032;-82
2022/02/15 09:52:59;;;;;;;19.17;2.30;;;;;;;5.40;100.00;99511.41;4783853;30;20062;-81
2022/02/15 09:55:24;;;;;;;30.63;4.47;;;;;;;5.46;100.00;99525.78;4780020;30;20116;-81
2022/02/15 09:57:50;;;;;;;29.10;3.83;;;;;;;5.62;100.00;99543.31;4783047;30;20032;-81
2022/02/15 10:00:16;;;;;;;26.73;4.18;;;;;;;5.63;100.00;99548.47;4782904;30;20075;-81
2022/02/15 10:02:42;;;;;;;26.10;4.22;;;;;;;5.71;100.00;99544.81;4781971;30;20463;-81
2022/02/15 10:05:13;;;;;;;27.33;3.58;;;;;;;5.68;100.00;99545.22;4787189;30;20039;-81
2022/02/15 10:07:48;;;;;;;25.38;3.50;;;;;;;5.74;100.00;99564.97;4790604;30;20477;-82
2022/02/15 10:10:14;;;;;;;;;;;;;;;5.82;100.00;99564.78;4789368;30;20096;-81
2022/02/15 10:12:39;;;;;;;28.92;4.45;;;;;;;5.69;100.00;99541.50;4798378;29;19921;-82
2022/02/15 10:15:10;;;;;;;25.35;4.05;;;;;;;5.79;100.00;99549.97;4807993;30;20091;-82
2022/02/15 10:17:37;;;;;;;21.90;4.18;;;;;;;5.68;100.00;99541.72;4793844;30;20027;-82
2022/02/15 10:20:04;;;;;;;36.38;4.68;;;;;;;5.86;100.00;99582.03;4787449;30;20028;-82
2022/02/15 10:22:29;;;;;;;35.70;5.07;;;;;;;5.89;100.00;99586.97;4790335;30;20073;-81
2022/02/15 10:25:00;;;;;;;34.88;4.72;;;;;;;5.86;100.00;99582.88;4782330;30;20027;-82
2022/02/15 10:27:30;;;;;;;30.73;4.95;;;;;;;5.76;100.00;99576.25;4805233;30;20131;-82
2022/02/15 10:29:56;;;;;;;25.38;4.05;;;;;;;5.70;100.00;99571.72;4805402;30;20048;-82
2022/02/15 10:32:22;;;;;;;32.85;4.50;;;;;;;5.91;100.00;99600.16;4796972;30;20459;-82
2022/02/15 10:34:59;;;;;;;27.60;4.10;;;;;;;5.95;100.00;99607.56;4769189;30;20029;-82
2022/02/15 10:37:30;;;;;;;31.75;4.22;;;;;;;5.86;100.00;99577.53;4789529;30;20027;-81
2022/02/15 10:39:58;;;;;;;41.33;5.43;;;;;;;6.06;100.00;99601.69;4792128;30;20038;-82
2022/02/15 10:42:26;;;;;;;40.15;5.85;;;;;;;6.16;100.00;99613.81;4784920;30;20046;-82
2022/02/15 10:44:59;;;;;;;33.80;4.95;;;;;;;6.07;100.00;99581.97;4783403;30;20058;-81
2022/02/15 10:47:29;;;;;;;30.17;4.55;;;;;;;6.24;100.00;99592.28;4775432;30;20039;-80
2022/02/15 10:49:57;;;;;;;29.80;4.60;;;;;;;6.38;100.00;99611.84;4775040;30;20047;-80
2022/02/15 10:52:23;;;;;;;32.92;4.45;;;;;;;6.45;100.00;99613.50;4775888;30;20032;-81
2022/02/15 10:54:49;;;;;;;29.58;4.43;;;;;;;6.46;100.00;99615.19;4756855;30;20189;-80
2022/02/15 10:57:15;;;;;;;34.60;4.18;;;;;;;6.41;100.00;99627.50;4771749;30;20114;-80
2022/02/15 10:59:42;;;;;;;30.45;4.68;;;;;;;6.46;100.00;99620.53;4779945;30;20039;-82
2022/02/15 11:02:17;;;;;;;28.33;4.43;;;;;;;6.40;100.00;99618.66;4784194;30;20153;-82
2022/02/15 11:04:43;;;;;;;34.00;4.50;;;;;;;6.55;100.00;99626.50;4791639;30;20023;-81
2022/02/15 11:07:11;;;;;;;26.83;3.83;;;;;;;6.41;100.00;99622.97;4777222;30;20048;-81
2022/02/15 11:09:43;;;;;;;25.67;4.35;;;;;;;6.49;100.00;99637.97;4795010;30;20065;-81
2022/02/15 11:12:20;;;;;;;18.55;3.13;;;;;;;6.28;100.00;99636.28;4796023;30;20031;-81
2022/02/15 11:14:50;;;;;;;18.58;3.20;;;;;;;6.28;100.00;99660.31;4780513;30;20055;-81
2022/02/15 11:17:16;;;;;;;19.02;2.92;;;;;;;6.20;100.00;99664.00;4778558;30;20052;-81
2022/02/15 11:19:42;;;;;;;29.05;4.38;;;;;;;6.21;100.00;99673.66;4775324;30;20099;-81
2022/02/15 11:22:27;;;;;;;26.65;4.25;;;;;;;6.05;100.00;99665.97;4766064;30;20096;-81
2022/02/15 11:24:53;;;;;;;21.95;3.20;;;;;;;5.97;100.00;99658.94;4766168;30;20040;-80
2022/02/15 11:27:21;;;;;;;20.83;2.95;;;;;;;5.92;100.00;99648.00;4777087;30;20041;-81
2022/02/15 11:29:51;;;;;;;22.33;3.55;;;;;;;6.02;100.00;99669.84;4782228;30;20031;-82
2022/02/15 11:32:27;;;;;;;15.27;2.83;;;;;;;6.04;100.00;99673.16;4771735;30;20031;-80
2022/02/15 11:34:53;;;;;;;22.77;3.22;;;;;;;5.89;100.00;99665.25;4775642;30;20027;-81
2022/02/15 11:37:22;;;;;;;23.17;3.58;;;;;;;6.05;100.00;99677.47;4777108;30;20027;-81
2022/02/15 11:40:04;;;;;;;22.38;2.97;;;;;;;6.05;100.00;99682.00;4778566;30;20043;-81
2022/02/15 11:42:42;;;;;;;19.35;3.45;;;;;;;5.99;100.00;99677.44;4775079;30;20027;-81
2022/02/15 11:45:27;;;;;;;14.25;2.47;;;;;;;5.96;100.00;99678.66;4775305;30;20031;-81
2022/02/15 11:47:53;;;;;;;30.90;3.40;;;;;;;6.00;100.00;99695.94;4761622;30;20112;-81
2022/02/15 11:50:19;;;;;;;28.50;3.90;;;;;;;5.99;100.00;99683.59;4776188;30;20077;-81
2022/02/15 11:52:45;;;;;;;18.65;2.55;;;;;;;5.96;100.00;99673.34;4773229;30;20039;-81
2022/02/15 11:55:17;;;;;;;16.05;2.42;;;;;;;5.97;100.00;99679.50;4780425;30;20078;-82
2022/02/15 11:57:43;;;;;;;22.65;3.95;;;;;;;6.06;100.00;99688.97;4772970;30;20035;-81
2022/02/15 12:00:11;;;;;;;21.23;3.05;;;;;;;6.06;100.00;99684.47;4775509;30;20031;-81
2022/02/15 12:02:37;;;;;;;25.10;4.22;;;;;;;6.01;100.00;99676.22;4779186;30;20031;-82
2022/02/15 12:05:05;;;;;;;19.05;3.38;;;;;;;6.11;100.00;99699.91;4777136;30;20031;-81
2022/02/15 12:07:31;;;;;;;25.17;3.47;;;;;;;6.16;100.00;99704.63;4778850;30;20121;-80
2022/02/15 12:09:59;;;;;;;19.02;2.97;;;;;;;6.24;100.00;99704.50;4776163;30;20035;-81
2022/02/15 12:12:44;;;;;;;17.25;3.38;;;;;;;6.25;100.00;99687.44;4774164;30;20151;-81